Time;durP1;ratioP1;P1;durP2;ratioP2;P2;SDS_P1;SDS_P2;PMS_P1;PMS_P2;Temp;Humidity;BMP_temperature;BMP_pressure;BME280_temperature;BME280_humidity;BME280_pressure;Samples;Min_cycle;Max_cycle;Signal;HPM_P1;HPM_P2
2022/05/30 00:01:08;;;;;;;5.82;2.80;;;;;;;;;;5114775;28;20107;-47
2022/05/30 00:03:33;;;;;;;8.38;2.63;;;;;;;;;;5108603;28;20039;-45
2022/05/30 00:05:59;;;;;;;15.48;4.60;;;;;;;;;;5120447;28;20035;-45
2022/05/30 00:08:24;;;;;;;4.95;3.03;;;;;;;;;;5098772;28;20047;-45
2022/05/30 00:10:49;;;;;;;6.05;2.88;;;;;;;;;;5108703;27;20091;-46
2022/05/30 00:13:15;;;;;;;8.27;2.45;;;;;;;;;;5114153;28;20753;-42
2022/05/30 00:15:41;;;;;;;4.60;1.85;;;;;;;;;;5119558;28;20513;-47
2022/05/30 00:18:09;;;;;;;9.68;3.13;;;;;;;;;;5108141;28;20051;-43
2022/05/30 00:20:34;;;;;;;3.45;2.28;;;;;;;;;;5114661;28;20682;-47
2022/05/30 00:22:59;;;;;;;4.95;3.30;;;;;;;;;;5119333;28;20043;-47
2022/05/30 00:25:25;;;;;;;5.47;2.83;;;;;;;;;;5120045;28;20453;-49
2022/05/30 00:27:50;;;;;;;6.88;3.38;;;;;;;;;;5111032;28;20052;-43
2022/05/30 00:30:16;;;;;;;12.05;4.00;;;;;;;;;;5101204;27;20039;-49
2022/05/30 00:32:41;;;;;;;24.85;4.32;;;;;;;;;;5118214;27;20050;-50
2022/05/30 00:35:08;;;;;;;6.40;2.85;;;;;;;;;;5123191;27;20046;-49
2022/05/30 00:37:33;;;;;;;3.45;2.47;;;;;;;;;;5118085;27;20146;-46
2022/05/30 00:39:58;;;;;;;4.65;2.08;;;;;;;;;;5114228;27;20574;-43
2022/05/30 00:42:25;;;;;;;9.80;3.67;;;;;;;;;;5122633;27;20051;-50
2022/05/30 00:44:50;;;;;;;6.30;2.03;;;;;;;;;;5114949;27;20028;-44
2022/05/30 00:47:16;;;;;;;4.40;2.65;;;;;;;;;;5109752;27;20135;-47
2022/05/30 00:49:43;;;;;;;5.22;2.70;;;;;;;;;;5120984;27;20074;-46
2022/05/30 00:52:09;;;;;;;14.02;2.80;;;;;;;;;;5111241;27;20058;-44
2022/05/30 00:54:47;;;;;;;7.55;2.67;;;;;;;;;;5111957;27;20035;-44
2022/05/30 00:57:21;;;;;;;8.18;2.78;;;;;;;;;;5107196;27;20047;-44
2022/05/30 00:59:59;;;;;;;4.07;2.25;;;;;;;;;;5109713;27;20032;-46
2022/05/30 01:02:31;;;;;;;4.82;3.33;;;;;;;;;;5119989;27;20092;-48
2022/05/30 01:07:54;;;;;;;17.05;3.17;;;;;;;;;;5081352;27;20039;-42
2022/05/30 01:10:21;;;;;;;62.85;5.82;;;;;;;;;;5122138;27;20071;-46
2022/05/30 01:12:52;;;;;;;8.32;3.53;;;;;;;;;;5120518;27;20046;-47
2022/05/30 01:15:19;;;;;;;16.85;4.10;;;;;;;;;;5121142;27;20104;-47
2022/05/30 01:17:50;;;;;;;20.67;3.30;;;;;;;;;;5119264;27;20050;-45
2022/05/30 01:20:28;;;;;;;6.07;2.53;;;;;;;;;;5121144;27;20089;-45
2022/05/30 01:23:06;;;;;;;13.02;2.25;;;;;;;;;;5118773;27;20027;-45
2022/05/30 01:25:31;;;;;;;11.27;2.63;;;;;;;;;;5121696;27;20050;-49
2022/05/30 01:28:02;;;;;;;9.60;2.92;;;;;;;;;;5118676;27;20043;-45
2022/05/30 01:30:27;;;;;;;6.25;1.67;;;;;;;;;;5120218;27;20181;-42
2022/05/30 01:32:58;;;;;;;17.58;3.85;;;;;;;;;;5115495;27;20206;-47
2022/05/30 01:35:24;;;;;;;6.88;3.05;;;;;;;;;;5114495;27;20048;-48
2022/05/30 01:37:50;;;;;;;9.13;2.85;;;;;;;;;;5111676;27;20047;-44
2022/05/30 01:40:15;;;;;;;5.53;2.25;;;;;;;;;;5122473;27;20046;-46
2022/05/30 01:42:40;;;;;;;9.73;3.30;;;;;;;;;;5102610;27;20055;-45
2022/05/30 01:45:06;;;;;;;14.35;4.32;;;;;;;;;;5116138;27;20108;-43
2022/05/30 01:47:31;;;;;;;6.07;2.15;;;;;;;;;;5104367;27;20036;-42
2022/05/30 01:49:56;;;;;;;9.95;3.30;;;;;;;;;;5115957;27;20059;-45
2022/05/30 01:52:22;;;;;;;7.90;3.28;;;;;;;;;;5120519;27;20039;-45
2022/05/30 01:54:47;;;;;;;9.32;3.08;;;;;;;;;;5121192;27;20046;-43
2022/05/30 01:57:12;;;;;;;9.88;2.95;;;;;;;;;;5117703;27;20050;-47
2022/05/30 01:59:38;;;;;;;22.50;3.15;;;;;;;;;;5112147;27;20055;-44
2022/05/30 02:02:03;;;;;;;14.45;2.00;;;;;;;;;;5111858;27;20512;-43
2022/05/30 02:04:28;;;;;;;4.60;2.13;;;;;;;;;;5113534;27;20502;-45
2022/05/30 02:06:54;;;;;;;3.08;1.88;;;;;;;;;;5119369;27;20416;-44
2022/05/30 02:09:19;;;;;;;18.35;3.47;;;;;;;;;;5114605;27;20470;-47
2022/05/30 02:11:44;;;;;;;7.82;2.47;;;;;;;;;;5111797;27;20035;-44
2022/05/30 02:14:10;;;;;;;5.95;2.55;;;;;;;;;;5108884;27;20142;-46
2022/05/30 02:19:20;;;;;;;9.55;2.72;;;;;;;;;;5110672;27;20073;-46
2022/05/30 02:21:46;;;;;;;10.55;3.20;;;;;;;;;;5106879;27;20467;-46
2022/05/30 02:24:12;;;;;;;4.82;1.85;;;;;;;;;;5118089;27;20075;-47
2022/05/30 02:26:37;;;;;;;12.07;2.25;;;;;;;;;;5120838;27;20086;-48
2022/05/30 02:29:03;;;;;;;3.42;2.30;;;;;;;;;;5119656;27;20457;-46
2022/05/30 02:31:29;;;;;;;5.28;2.20;;;;;;;;;;5111761;27;20134;-47
2022/05/30 02:36:41;;;;;;;7.43;2.25;;;;;;;;;;5105413;27;20054;-42
2022/05/30 02:39:07;;;;;;;14.63;3.05;;;;;;;;;;5107210;27;20070;-45
2022/05/30 02:41:33;;;;;;;14.98;2.30;;;;;;;;;;5110215;27;20044;-43
2022/05/30 02:43:58;;;;;;;9.57;2.35;;;;;;;;;;5105714;27;20044;-42
2022/05/30 02:46:23;;;;;;;12.50;3.08;;;;;;;;;;5117855;27;20482;-44
2022/05/30 02:48:49;;;;;;;3.45;1.98;;;;;;;;;;5111486;27;20444;-42
2022/05/30 02:51:14;;;;;;;12.95;4.85;;;;;;;;;;5118592;27;20565;-42
2022/05/30 02:53:40;;;;;;;5.05;2.47;;;;;;;;;;5121058;27;20492;-41
2022/05/30 02:56:05;;;;;;;5.20;2.28;;;;;;;;;;5110220;27;20382;-47
2022/05/30 02:58:31;;;;;;;6.40;2.15;;;;;;;;;;5108257;27;20123;-45
2022/05/30 03:00:57;;;;;;;3.80;1.75;;;;;;;;;;5116231;27;20061;-43
2022/05/30 03:03:22;;;;;;;11.80;2.42;;;;;;;;;;5113590;27;20047;-46
2022/05/30 03:05:47;;;;;;;7.28;2.65;;;;;;;;;;5116394;27;20058;-43
2022/05/30 03:08:13;;;;;;;4.80;2.38;;;;;;;;;;5110733;27;20122;-49
2022/05/30 03:10:38;;;;;;;4.47;2.72;;;;;;;;;;5108196;27;20043;-42
2022/05/30 03:13:05;;;;;;;4.13;3.33;;;;;;;;;;5107444;27;20504;-47
2022/05/30 03:15:30;;;;;;;16.88;2.95;;;;;;;;;;5116423;27;20660;-45
2022/05/30 03:17:55;;;;;;;3.95;2.53;;;;;;;;;;5107116;27;20055;-46
2022/05/30 03:20:21;;;;;;;8.52;2.53;;;;;;;;;;5111722;27;20455;-46
2022/05/30 03:22:47;;;;;;;5.82;2.78;;;;;;;;;;5112632;27;20348;-47
2022/05/30 03:25:13;;;;;;;4.88;2.35;;;;;;;;;;5109453;27;20591;-44
2022/05/30 03:27:38;;;;;;;4.82;2.63;;;;;;;;;;5117850;27;20072;-46
2022/05/30 03:30:04;;;;;;;10.85;3.33;;;;;;;;;;5118827;27;20036;-49
2022/05/30 03:32:29;;;;;;;9.57;2.35;;;;;;;;;;5119365;27;20039;-46
2022/05/30 03:34:55;;;;;;;4.13;2.42;;;;;;;;;;5109519;28;20064;-47
2022/05/30 03:37:20;;;;;;;2.85;2.40;;;;;;;;;;5108753;27;20845;-43
2022/05/30 03:39:45;;;;;;;4.18;2.25;;;;;;;;;;5102528;28;20104;-47
2022/05/30 03:42:13;;;;;;;6.10;3.42;;;;;;;;;;5107045;27;20047;-47
2022/05/30 03:44:41;;;;;;;3.03;2.25;;;;;;;;;;5118240;27;20040;-47
2022/05/30 03:47:07;;;;;;;3.65;2.47;;;;;;;;;;5108488;28;20088;-46
2022/05/30 03:49:33;;;;;;;7.13;2.72;;;;;;;;;;5112335;28;20047;-43
2022/05/30 03:51:58;;;;;;;4.47;2.10;;;;;;;;;;5118638;28;20043;-47
2022/05/30 03:54:24;;;;;;;10.73;2.13;;;;;;;;;;5111486;28;20530;-46
2022/05/30 03:56:49;;;;;;;4.22;2.90;;;;;;;;;;5114002;28;20543;-47
2022/05/30 03:59:14;;;;;;;8.60;2.58;;;;;;;;;;5116264;28;20388;-46
2022/05/30 04:01:40;;;;;;;11.10;2.28;;;;;;;;;;5116178;28;20067;-46
2022/05/30 04:04:05;;;;;;;12.23;2.50;;;;;;;;;;5119906;27;20039;-43
2022/05/30 04:06:30;;;;;;;11.80;3.00;;;;;;;;;;5107367;27;20135;-47
2022/05/30 04:08:56;;;;;;;9.48;2.72;;;;;;;;;;5109665;27;20131;-48
2022/05/30 04:11:21;;;;;;;3.80;1.90;;;;;;;;;;5114677;27;20124;-48
2022/05/30 04:13:46;;;;;;;8.90;3.55;;;;;;;;;;5111855;27;20268;-43
2022/05/30 04:16:12;;;;;;;3.25;2.47;;;;;;;;;;5123364;27;20148;-42
2022/05/30 04:18:38;;;;;;;10.25;1.70;;;;;;;;;;5122698;27;20043;-42
2022/05/30 04:21:05;;;;;;;6.53;2.55;;;;;;;;;;5123378;27;20508;-46
2022/05/30 04:23:30;;;;;;;7.45;2.33;;;;;;;;;;5121491;27;20475;-43
2022/05/30 04:25:56;;;;;;;25.20;4.15;;;;;;;;;;5120504;27;20088;-45
2022/05/30 04:28:21;;;;;;;5.72;3.72;;;;;;;;;;5118737;27;20063;-47
2022/05/30 04:30:46;;;;;;;16.63;5.10;;;;;;;;;;5114423;27;20718;-47
2022/05/30 04:33:11;;;;;;;6.35;3.33;;;;;;;;;;5120987;27;20172;-48
2022/05/30 04:35:37;;;;;;;7.80;3.28;;;;;;;;;;5109705;27;20051;-47
2022/05/30 04:38:02;;;;;;;23.23;5.40;;;;;;;;;;5116213;27;20043;-47
2022/05/30 04:40:27;;;;;;;18.75;4.30;;;;;;;;;;5114982;27;20062;-47
2022/05/30 04:42:54;;;;;;;8.85;3.13;;;;;;;;;;5116209;27;20044;-43
2022/05/30 04:45:20;;;;;;;12.95;4.07;;;;;;;;;;5108858;27;20059;-44
2022/05/30 04:47:45;;;;;;;16.98;4.80;;;;;;;;;;5120346;27;20035;-45
2022/05/30 04:50:16;;;;;;;15.52;2.83;;;;;;;;;;5121359;27;20773;-46
2022/05/30 04:52:42;;;;;;;5.50;3.78;;;;;;;;;;5112103;27;20044;-49
2022/05/30 04:55:07;;;;;;;4.05;2.65;;;;;;;;;;5116286;27;20560;-44
2022/05/30 04:57:39;;;;;;;6.05;2.83;;;;;;;;;;5109039;27;20048;-43
2022/05/30 05:00:05;;;;;;;10.10;3.65;;;;;;;;;;5119073;27;20057;-46
2022/05/30 05:02:30;;;;;;;5.72;2.83;;;;;;;;;;5108399;27;20052;-47
2022/05/30 05:04:56;;;;;;;2.13;1.92;;;;;;;;;;5119512;27;20396;-48
2022/05/30 05:07:21;;;;;;;10.35;3.03;;;;;;;;;;5120332;27;20393;-45
2022/05/30 05:09:51;;;;;;;15.18;5.03;;;;;;;;;;5106526;27;20078;-49
2022/05/30 05:12:16;;;;;;;4.97;1.98;;;;;;;;;;5110901;27;20130;-46
2022/05/30 05:14:41;;;;;;;5.15;2.63;;;;;;;;;;5117984;27;20122;-43
2022/05/30 05:17:07;;;;;;;10.10;2.15;;;;;;;;;;5106330;27;20073;-48
2022/05/30 05:19:33;;;;;;;12.32;4.82;;;;;;;;;;5114414;27;20334;-46
2022/05/30 05:21:58;;;;;;;1.77;1.35;;;;;;;;;;5117264;27;20062;-44
2022/05/30 05:24:24;;;;;;;6.60;2.85;;;;;;;;;;5116026;27;20090;-48
2022/05/30 05:26:50;;;;;;;12.40;3.03;;;;;;;;;;5114722;27;20586;-45
2022/05/30 05:29:15;;;;;;;7.63;2.97;;;;;;;;;;5110663;27;20053;-49
2022/05/30 05:31:41;;;;;;;14.07;3.80;;;;;;;;;;5114228;27;20127;-49
2022/05/30 05:34:07;;;;;;;4.00;2.25;;;;;;;;;;5105386;27;20048;-48
2022/05/30 05:36:34;;;;;;;8.00;3.70;;;;;;;;;;5118095;27;20571;-44
2022/05/30 05:39:00;;;;;;;6.40;2.08;;;;;;;;;;5121279;27;20081;-46
2022/05/30 05:41:25;;;;;;;8.05;3.67;;;;;;;;;;5101974;27;20489;-47
2022/05/30 05:43:54;;;;;;;3.22;2.90;;;;;;;;;;5110586;27;20074;-45
2022/05/30 05:46:21;;;;;;;3.83;3.47;;;;;;;;;;5117367;27;20036;-47
2022/05/30 05:48:47;;;;;;;16.98;7.70;;;;;;;;;;5118257;27;20058;-46
2022/05/30 05:51:13;;;;;;;18.77;7.40;;;;;;;;;;5115457;27;20044;-48
2022/05/30 05:53:39;;;;;;;11.35;2.85;;;;;;;;;;5115750;27;20043;-50
2022/05/30 05:56:08;;;;;;;8.45;3.70;;;;;;;;;;5115372;27;20423;-49
2022/05/30 05:58:34;;;;;;;3.55;2.28;;;;;;;;;;5112890;27;20525;-44
2022/05/30 06:01:05;;;;;;;9.05;4.18;;;;;;;;;;5110278;27;20159;-49
2022/05/30 06:03:30;;;;;;;120.10;15.32;;;;;;;;;;5110588;27;20172;-49
2022/05/30 06:05:58;;;;;;;17.30;5.72;;;;;;;;;;5113156;27;20467;-46
2022/05/30 06:08:23;;;;;;;17.58;7.20;;;;;;;;;;5107540;27;20035;-48
2022/05/30 06:13:33;;;;;;;9.20;4.07;;;;;;;;;;5113549;27;20047;-47
2022/05/30 06:15:58;;;;;;;20.58;3.72;;;;;;;;;;5116563;27;20044;-50
2022/05/30 06:18:24;;;;;;;256.25;60.53;;;;;;;;;;5108516;27;20038;-47
2022/05/30 06:20:49;;;;;;;798.40;215.68;;;;;;;;;;5116338;27;20032;-45
2022/05/30 06:23:14;;;;;;;98.13;22.05;;;;;;;;;;5120759;27;20087;-48
2022/05/30 06:25:41;;;;;;;50.55;13.27;;;;;;;;;;5120238;27;20128;-48
2022/05/30 06:28:07;;;;;;;48.63;14.13;;;;;;;;;;5107624;27;20044;-47
2022/05/30 06:30:32;;;;;;;18.20;7.72;;;;;;;;;;5106710;27;20047;-50
2022/05/30 06:32:57;;;;;;;27.42;5.35;;;;;;;;;;5118125;27;20625;-46
2022/05/30 06:35:22;;;;;;;61.85;11.32;;;;;;;;;;5115030;27;20172;-50
2022/05/30 06:37:48;;;;;;;22.13;8.18;;;;;;;;;;5109031;27;20044;-48
2022/05/30 06:40:15;;;;;;;13.15;5.57;;;;;;;;;;5113925;27;20130;-49
2022/05/30 06:42:40;;;;;;;20.95;9.02;;;;;;;;;;5121279;27;20245;-47
2022/05/30 06:45:05;;;;;;;14.43;10.38;;;;;;;;;;5121374;27;20507;-50
2022/05/30 06:47:31;;;;;;;12.70;9.13;;;;;;;;;;5111152;27;20054;-45
2022/05/30 06:49:56;;;;;;;14.45;6.72;;;;;;;;;;5120870;27;20053;-45
2022/05/30 06:52:21;;;;;;;7.38;5.13;;;;;;;;;;5118261;27;20122;-43
2022/05/30 06:54:47;;;;;;;6.75;5.30;;;;;;;;;;5110496;27;20062;-47
2022/05/30 06:59:56;;;;;;;19.48;4.65;;;;;;;;;;5113818;27;20062;-58
2022/05/30 07:02:22;;;;;;;10.85;4.35;;;;;;;;;;5121578;27;20134;-57
2022/05/30 07:04:47;;;;;;;12.40;4.18;;;;;;;;;;5111047;27;20040;-56
2022/05/30 07:07:13;;;;;;;8.18;2.72;;;;;;;;;;5115723;27;20058;-55
2022/05/30 07:09:42;;;;;;;9.07;2.78;;;;;;;;;;5109571;27;20055;-56
2022/05/30 07:12:10;;;;;;;3.78;2.42;;;;;;;;;;5105850;27;20535;-51
2022/05/30 07:14:36;;;;;;;6.43;3.03;;;;;;;;;;5107958;27;20508;-50
2022/05/30 07:17:04;;;;;;;7.15;3.30;;;;;;;;;;5117234;27;20042;-55
2022/05/30 07:19:30;;;;;;;10.48;3.28;;;;;;;;;;5102553;27;20423;-53
2022/05/30 07:21:59;;;;;;;5.00;3.17;;;;;;;;;;5115908;27;20043;-51
2022/05/30 07:24:24;;;;;;;6.30;4.10;;;;;;;;;;5116915;27;20464;-54
2022/05/30 07:26:50;;;;;;;9.32;4.60;;;;;;;;;;5102716;27;20597;-56
2022/05/30 07:29:15;;;;;;;6.78;2.60;;;;;;;;;;5119976;27;20092;-55
2022/05/30 07:31:41;;;;;;;12.90;6.82;;;;;;;;;;5122531;27;20054;-54
2022/05/30 07:34:06;;;;;;;9.18;2.80;;;;;;;;;;5120387;27;20495;-53
2022/05/30 07:36:31;;;;;;;6.85;4.30;;;;;;;;;;5113967;28;20051;-54
2022/05/30 07:39:00;;;;;;;13.90;5.50;;;;;;;;;;5109183;27;20131;-51
2022/05/30 07:41:27;;;;;;;4.05;2.17;;;;;;;;;;5110129;27;20051;-54
2022/05/30 07:43:53;;;;;;;17.80;3.78;;;;;;;;;;5109757;28;20039;-54
2022/05/30 07:46:19;;;;;;;5.07;3.05;;;;;;;;;;5121231;28;20050;-54
2022/05/30 07:48:47;;;;;;;4.93;3.80;;;;;;;;;;5112349;28;20093;-53
2022/05/30 07:51:13;;;;;;;17.48;4.60;;;;;;;;;;5110118;28;20046;-51
2022/05/30 07:53:39;;;;;;;19.40;7.53;;;;;;;;;;5119318;28;20135;-54
2022/05/30 07:56:06;;;;;;;7.45;4.82;;;;;;;;;;5114383;27;20126;-53
2022/05/30 07:58:31;;;;;;;13.45;4.85;;;;;;;;;;5107336;27;20043;-53
2022/05/30 08:00:57;;;;;;;1.88;1.52;;;;;;;;;;5114681;27;20043;-50
2022/05/30 08:03:24;;;;;;;12.75;4.47;;;;;;;;;;5113952;27;20047;-53
2022/05/30 08:05:49;;;;;;;10.80;2.30;;;;;;;;;;5118318;27;20170;-55
2022/05/30 08:08:15;;;;;;;21.90;7.65;;;;;;;;;;5107212;28;20119;-52
2022/05/30 08:10:41;;;;;;;12.32;3.20;;;;;;;;;;5104766;28;20040;-54
2022/05/30 08:13:06;;;;;;;7.90;4.07;;;;;;;;;;5119639;28;20061;-54
2022/05/30 08:15:31;;;;;;;27.60;4.25;;;;;;;;;;5113426;28;20452;-50
2022/05/30 08:17:58;;;;;;;3.78;1.67;;;;;;;;;;5118141;28;20036;-53
2022/05/30 08:20:24;;;;;;;5.68;3.17;;;;;;;;;;5118568;28;20123;-53
2022/05/30 08:22:49;;;;;;;5.13;2.25;;;;;;;;;;5117453;28;20093;-53
2022/05/30 08:25:15;;;;;;;3.45;2.00;;;;;;;;;;5118610;28;20028;-54
2022/05/30 08:27:44;;;;;;;4.15;2.38;;;;;;;;;;5108348;28;20039;-54
2022/05/30 08:30:11;;;;;;;12.10;2.20;;;;;;;;;;5110148;27;20052;-53
2022/05/30 08:32:40;;;;;;;14.27;3.42;;;;;;;;;;5118955;28;20535;-53
2022/05/30 08:35:06;;;;;;;4.07;1.27;;;;;;;;;;5116092;28;20043;-54
2022/05/30 08:37:32;;;;;;;2.22;1.63;;;;;;;;;;5115774;28;20039;-53
2022/05/30 08:42:42;;;;;;;4.22;2.35;;;;;;;;;;5118982;28;20043;-53
2022/05/30 08:45:09;;;;;;;11.07;4.38;;;;;;;;;;5117199;28;20036;-52
2022/05/30 08:47:41;;;;;;;15.35;4.07;;;;;;;;;;5116454;28;20062;-53
2022/05/30 08:50:25;;;;;;;4.82;2.95;;;;;;;;;;5114744;27;20040;-52
2022/05/30 08:52:53;;;;;;;6.68;2.97;;;;;;;;;;5119525;27;20587;-51
2022/05/30 08:55:26;;;;;;;5.68;2.58;;;;;;;;;;5120004;27;20592;-51
2022/05/30 08:57:57;;;;;;;5.80;2.65;;;;;;;;;;5112584;27;20139;-53
2022/05/30 09:00:34;;;;;;;8.77;3.92;;;;;;;;;;5123384;27;20050;-53
2022/05/30 09:03:05;;;;;;;12.27;2.40;;;;;;;;;;5121426;27;20055;-52
2022/05/30 09:05:50;;;;;;;8.40;2.60;;;;;;;;;;5119658;27;20419;-51
2022/05/30 09:08:34;;;;;;;4.68;2.53;;;;;;;;;;5110705;27;20124;-53
2022/05/30 09:11:05;;;;;;;8.95;2.15;;;;;;;;;;5118691;27;20063;-53
2022/05/30 09:13:38;;;;;;;5.97;3.33;;;;;;;;;;5106042;27;20571;-54
2022/05/30 09:16:21;;;;;;;16.17;3.58;;;;;;;;;;5117253;27;20104;-51
2022/05/30 09:18:48;;;;;;;7.55;3.47;;;;;;;;;;5119517;27;20050;-52
2022/05/30 09:21:14;;;;;;;9.63;2.75;;;;;;;;;;5119986;27;20082;-53
2022/05/30 09:23:39;;;;;;;7.25;2.92;;;;;;;;;;5116925;27;20614;-53
2022/05/30 09:26:07;;;;;;;7.38;2.60;;;;;;;;;;5119352;27;20119;-54
2022/05/30 09:28:39;;;;;;;22.40;5.60;;;;;;;;;;5117820;27;20043;-53
2022/05/30 09:31:14;;;;;;;10.50;3.15;;;;;;;;;;5120159;27;20027;-52
2022/05/30 09:33:41;;;;;;;8.70;3.33;;;;;;;;;;5119758;27;20050;-53
2022/05/30 09:36:10;;;;;;;18.98;3.13;;;;;;;;;;5109894;27;20032;-55
2022/05/30 09:38:39;;;;;;;8.95;5.00;;;;;;;;;;5113506;27;20141;-52
2022/05/30 09:41:06;;;;;;;4.07;1.88;;;;;;;;;;5111847;27;20041;-54
2022/05/30 09:43:41;;;;;;;16.20;3.05;;;;;;;;;;5108074;27;20083;-53
2022/05/30 09:46:17;;;;;;;16.70;5.82;;;;;;;;;;5117049;27;20038;-53
2022/05/30 09:48:58;;;;;;;11.43;4.30;;;;;;;;;;5119947;27;20043;-52
2022/05/30 09:51:32;;;;;;;6.20;3.75;;;;;;;;;;5112477;27;20128;-54
2022/05/30 09:53:57;;;;;;;7.60;2.88;;;;;;;;;;5108516;27;20483;-54
2022/05/30 09:56:23;;;;;;;5.53;4.03;;;;;;;;;;5117122;27;20618;-54
2022/05/30 09:58:49;;;;;;;6.95;2.35;;;;;;;;;;5120197;27;20053;-54
2022/05/30 10:01:27;;;;;;;11.48;5.30;;;;;;;;;;5115290;27;20109;-54
2022/05/30 10:03:56;;;;;;;7.88;3.25;;;;;;;;;;5120128;27;20047;-54
2022/05/30 10:06:26;;;;;;;17.75;7.05;;;;;;;;;;5120442;27;20062;-53
2022/05/30 10:09:07;;;;;;;29.50;4.93;;;;;;;;;;5113148;27;20051;-50
2022/05/30 10:11:33;;;;;;;7.53;3.20;;;;;;;;;;5119727;27;20050;-53
2022/05/30 10:13:59;;;;;;;10.00;2.63;;;;;;;;;;5110738;27;20043;-49
2022/05/30 10:16:35;;;;;;;5.10;3.47;;;;;;;;;;5111358;27;20502;-52
2022/05/30 10:19:05;;;;;;;6.13;1.17;;;;;;;;;;5116465;27;20047;-54
2022/05/30 10:21:30;;;;;;;7.20;3.33;;;;;;;;;;5118744;27;20499;-54
2022/05/30 10:29:45;;;;;;;12.65;4.50;;;;;;;;;;5118337;27;20085;-52
2022/05/30 10:32:17;;;;;;;9.27;2.45;;;;;;;;;;5104525;27;20543;-56
2022/05/30 10:34:54;;;;;;;3.85;2.67;;;;;;;;;;5111905;27;20745;-55
2022/05/30 10:37:19;;;;;;;8.27;3.20;;;;;;;;;;5107452;27;20051;-52
2022/05/30 10:39:51;;;;;;;8.75;3.95;;;;;;;;;;5104102;27;20105;-54
2022/05/30 10:42:16;;;;;;;11.27;4.97;;;;;;;;;;5111391;27;20054;-52
2022/05/30 10:44:45;;;;;;;10.70;5.03;;;;;;;;;;5113584;27;20500;-54
2022/05/30 10:47:29;;;;;;;6.65;1.98;;;;;;;;;;5120230;27;20043;-52
2022/05/30 10:50:12;;;;;;;5.13;3.58;;;;;;;;;;5112163;27;20040;-54
2022/05/30 10:52:41;;;;;;;6.25;2.83;;;;;;;;;;5119160;27;20225;-53
2022/05/30 10:55:19;;;;;;;9.15;3.08;;;;;;;;;;5117487;27;20135;-53
2022/05/30 10:57:56;;;;;;;9.90;2.50;;;;;;;;;;5118074;27;20610;-54
2022/05/30 11:00:23;;;;;;;8.82;2.95;;;;;;;;;;5107009;27;20457;-53
2022/05/30 11:02:49;;;;;;;4.88;2.33;;;;;;;;;;5107361;27;20454;-54
2022/05/30 11:05:26;;;;;;;7.97;3.80;;;;;;;;;;5111925;27;20564;-52
2022/05/30 11:07:58;;;;;;;4.22;3.33;;;;;;;;;;5120682;27;20508;-54
2022/05/30 11:10:33;;;;;;;4.00;1.80;;;;;;;;;;5118609;27;20173;-53
2022/05/30 11:13:02;;;;;;;7.97;4.47;;;;;;;;;;5115200;27;20070;-53
2022/05/30 11:15:31;;;;;;;12.30;3.40;;;;;;;;;;5116776;27;20044;-53
2022/05/30 11:18:16;;;;;;;16.60;5.97;;;;;;;;;;5116437;27;20076;-54
2022/05/30 11:21:00;;;;;;;14.20;5.47;;;;;;;;;;5104337;28;20162;-52
2022/05/30 11:23:26;;;;;;;4.07;2.58;;;;;;;;;;5112809;27;20040;-54
2022/05/30 11:26:00;;;;;;;22.58;10.85;;;;;;;;;;5118820;27;20036;-54
2022/05/30 11:28:38;;;;;;;8.15;5.13;;;;;;;;;;5117427;27;20385;-54
2022/05/30 11:31:11;;;;;;;22.92;6.63;;;;;;;;;;5117339;27;20050;-54
2022/05/30 11:33:49;;;;;;;3.97;2.20;;;;;;;;;;5111042;28;20594;-55
2022/05/30 11:36:38;;;;;;;8.02;3.45;;;;;;;;;;5112069;28;20455;-54
2022/05/30 11:39:22;;;;;;;9.07;5.63;;;;;;;;;;5113710;28;20047;-57
2022/05/30 11:41:48;;;;;;;8.32;3.92;;;;;;;;;;5115694;28;20115;-54
2022/05/30 11:44:19;;;;;;;11.48;3.85;;;;;;;;;;5113685;27;20050;-53
2022/05/30 11:46:55;;;;;;;7.35;3.22;;;;;;;;;;5112372;28;20050;-54
2022/05/30 11:49:27;;;;;;;11.68;4.45;;;;;;;;;;5116418;28;20066;-53
2022/05/30 11:51:54;;;;;;;12.18;4.93;;;;;;;;;;5118669;28;20047;-55
2022/05/30 11:54:19;;;;;;;13.13;4.15;;;;;;;;;;5115787;28;20035;-56
2022/05/30 11:56:50;;;;;;;8.43;2.28;;;;;;;;;;5119703;28;20047;-54
2022/05/30 11:59:16;;;;;;;10.10;3.35;;;;;;;;;;5117607;28;20119;-54
2022/05/30 12:01:42;;;;;;;11.27;2.85;;;;;;;;;;5115713;28;20055;-55
2022/05/30 12:04:25;;;;;;;9.18;2.10;;;;;;;;;;5113541;28;20091;-54
2022/05/30 12:06:54;;;;;;;11.50;3.85;;;;;;;;;;5110587;27;20046;-56
2022/05/30 12:09:19;;;;;;;7.90;4.32;;;;;;;;;;5118979;28;20073;-53
2022/05/30 12:11:44;;;;;;;9.90;1.85;;;;;;;;;;5115603;28;20074;-53
2022/05/30 12:14:09;;;;;;;6.70;2.50;;;;;;;;;;5111828;28;20062;-53
2022/05/30 12:16:40;;;;;;;8.85;2.42;;;;;;;;;;5110339;27;20513;-54
2022/05/30 12:24:35;;;;;;;3.78;2.03;;;;;;;;;;5119847;27;20053;-53
2022/05/30 12:27:06;;;;;;;15.07;5.53;;;;;;;;;;5122295;27;20039;-55
2022/05/30 12:29:38;;;;;;;16.73;4.45;;;;;;;;;;5119796;27;20200;-54
2022/05/30 12:32:10;;;;;;;8.80;3.40;;;;;;;;;;5111581;27;20055;-54
2022/05/30 12:34:54;;;;;;;11.70;4.25;;;;;;;;;;5121353;27;20047;-54
2022/05/30 12:37:41;;;;;;;7.88;3.97;;;;;;;;;;5118287;27;20047;-54
2022/05/30 12:40:27;;;;;;;8.43;3.90;;;;;;;;;;5100699;27;20093;-52
2022/05/30 12:43:16;;;;;;;6.40;4.43;;;;;;;;;;5099080;27;20044;-55
2022/05/30 12:45:41;;;;;;;3.42;2.38;;;;;;;;;;5114912;27;20043;-55
2022/05/30 12:48:25;;;;;;;8.00;2.67;;;;;;;;;;5112126;27;20047;-52
2022/05/30 12:50:51;;;;;;;3.90;2.80;;;;;;;;;;5121210;27;20039;-56
2022/05/30 12:53:17;;;;;;;10.40;3.05;;;;;;;;;;5115930;27;20514;-53
2022/05/30 12:55:50;;;;;;;10.35;3.63;;;;;;;;;;5114019;27;20101;-54
2022/05/30 12:58:20;;;;;;;3.63;2.10;;;;;;;;;;5120500;27;20039;-54
2022/05/30 13:00:49;;;;;;;12.52;4.90;;;;;;;;;;5113969;27;20096;-54
2022/05/30 13:03:20;;;;;;;2.88;1.88;;;;;;;;;;5118025;27;20062;-54
2022/05/30 13:05:58;;;;;;;10.82;4.55;;;;;;;;;;5121877;27;20058;-55
2022/05/30 13:08:41;;;;;;;2.95;1.90;;;;;;;;;;5115417;27;20039;-55
2022/05/30 13:11:09;;;;;;;15.25;4.55;;;;;;;;;;5117815;27;20122;-55
2022/05/30 13:13:37;;;;;;;6.55;2.42;;;;;;;;;;5120661;27;20050;-54
2022/05/30 13:16:09;;;;;;;12.60;3.90;;;;;;;;;;5119878;27;20043;-55
2022/05/30 13:18:34;;;;;;;11.98;2.53;;;;;;;;;;5117504;27;20043;-55
2022/05/30 13:21:01;;;;;;;19.65;6.32;;;;;;;;;;5111208;27;20043;-55
2022/05/30 13:23:32;;;;;;;4.70;3.00;;;;;;;;;;5114593;27;20080;-56
2022/05/30 13:25:58;;;;;;;7.20;2.60;;;;;;;;;;5110943;27;20116;-55
2022/05/30 13:28:28;;;;;;;5.95;2.75;;;;;;;;;;5111139;27;20123;-55
2022/05/30 13:30:55;;;;;;;8.17;4.30;;;;;;;;;;5111197;27;20080;-53
2022/05/30 13:33:23;;;;;;;15.88;3.88;;;;;;;;;;5118915;27;20047;-54
2022/05/30 13:35:53;;;;;;;6.20;3.45;;;;;;;;;;5118733;27;20039;-56
2022/05/30 13:38:27;;;;;;;7.82;3.60;;;;;;;;;;5103614;27;20052;-55
2022/05/30 13:40:52;;;;;;;3.17;2.65;;;;;;;;;;5111168;27;20145;-54
2022/05/30 13:43:20;;;;;;;12.93;3.33;;;;;;;;;;5120775;27;20139;-56
2022/05/30 13:45:46;;;;;;;11.20;4.15;;;;;;;;;;5118698;27;20047;-56
2022/05/30 13:48:15;;;;;;;8.40;5.60;;;;;;;;;;5120694;27;20122;-56
2022/05/30 13:50:51;;;;;;;5.38;3.60;;;;;;;;;;5121236;27;20075;-56
2022/05/30 13:53:24;;;;;;;18.17;4.32;;;;;;;;;;5123624;27;20039;-56
2022/05/30 13:56:00;;;;;;;6.68;3.10;;;;;;;;;;5119341;27;20039;-56
2022/05/30 13:58:28;;;;;;;9.70;3.28;;;;;;;;;;5120414;27;20044;-55
2022/05/30 14:00:54;;;;;;;9.45;4.43;;;;;;;;;;5124646;27;20781;-55
2022/05/30 14:03:22;;;;;;;5.95;3.80;;;;;;;;;;5122636;27;20073;-55
2022/05/30 14:05:48;;;;;;;6.75;3.58;;;;;;;;;;5113478;27;20613;-56
2022/05/30 14:08:16;;;;;;;10.93;4.70;;;;;;;;;;5099204;27;20051;-57
2022/05/30 14:10:44;;;;;;;7.38;2.88;;;;;;;;;;5116903;27;20043;-55
2022/05/30 14:13:36;;;;;;;4.20;2.55;;;;;;;;;;5108652;27;20044;-55
2022/05/30 14:16:03;;;;;;;10.43;4.80;;;;;;;;;;5102310;27;20052;-54
2022/05/30 14:18:43;;;;;;;6.45;3.67;;;;;;;;;;5110550;27;20109;-56
2022/05/30 14:21:09;;;;;;;10.50;6.17;;;;;;;;;;5112663;27;20049;-56
2022/05/30 14:23:35;;;;;;;26.67;7.35;;;;;;;;;;5117335;27;20039;-56
2022/05/30 14:26:01;;;;;;;5.03;4.53;;;;;;;;;;5117794;27;20093;-56
2022/05/30 14:28:27;;;;;;;8.15;4.07;;;;;;;;;;5113489;27;20055;-56
2022/05/30 14:30:53;;;;;;;1.83;1.63;;;;;;;;;;5111633;27;20046;-55
2022/05/30 14:33:24;;;;;;;12.32;4.85;;;;;;;;;;5106715;27;20070;-57
2022/05/30 14:35:49;;;;;;;4.18;2.40;;;;;;;;;;5110289;27;20107;-56
2022/05/30 14:38:38;;;;;;;3.88;3.17;;;;;;;;;;5120517;27;20055;-53
2022/05/30 14:41:04;;;;;;;5.10;2.13;;;;;;;;;;5120555;27;20720;-54
2022/05/30 14:43:29;;;;;;;5.43;3.65;;;;;;;;;;5116093;27;20167;-55
2022/05/30 14:46:06;;;;;;;7.55;4.13;;;;;;;;;;5116341;27;20047;-54
2022/05/30 14:48:32;;;;;;;8.98;3.42;;;;;;;;;;5121418;27;20137;-55
2022/05/30 14:51:03;;;;;;;5.10;3.67;;;;;;;;;;5112218;27;20043;-56
2022/05/30 14:53:28;;;;;;;;;;;;;;;;;;5109293;27;20098;-55
2022/05/30 14:56:06;;;;;;;4.37;3.10;;;;;;;;;;5108941;27;20435;-54
2022/05/30 14:58:39;;;;;;;7.50;5.03;;;;;;;;;;5117322;27;20520;-55
2022/05/30 15:01:05;;;;;;;5.28;2.53;;;;;;;;;;5098060;27;20089;-55
2022/05/30 15:06:17;;;;;;;11.75;6.03;;;;;;;;;;5110482;27;20073;-56
2022/05/30 15:08:43;;;;;;;7.13;4.18;;;;;;;;;;5105930;27;20039;-54
2022/05/30 15:11:17;;;;;;;6.50;4.70;;;;;;;;;;5108471;27;20067;-56
2022/05/30 15:13:43;;;;;;;23.02;7.55;;;;;;;;;;5105597;27;20035;-56
2022/05/30 15:16:08;;;;;;;3.90;3.50;;;;;;;;;;5107564;27;20039;-56